Time;durP1;ratioP1;P1;durP2;ratioP2;P2;SDS_P1;SDS_P2;PMS_P1;PMS_P2;Temp;Humidity;BMP_temperature;BMP_pressure;BME280_temperature;BME280_humidity;BME280_pressure;Samples;Min_cycle;Max_cycle;Signal;HPM_P1;HPM_P2
2024/01/26 00:00:48;;;;;;;16.80;3.78;;;;;;;-141.50;100.00;63355.56;4950160;28;20055;-78
2024/01/26 00:03:15;;;;;;;13.98;3.90;;;;;;;-141.50;100.00;63355.56;4948774;28;20453;-79
2024/01/26 00:05:42;;;;;;;15.82;4.22;;;;;;;-141.50;100.00;63355.56;4948509;28;20063;-80
2024/01/26 00:08:08;;;;;;;24.08;4.43;;;;;;;-141.50;100.00;63355.56;4949115;28;20066;-79
2024/01/26 00:10:37;;;;;;;17.38;4.05;;;;;;;-141.50;100.00;63355.56;4947823;28;20040;-80
2024/01/26 00:13:03;;;;;;;15.73;3.88;;;;;;;-141.50;100.00;63355.56;4948383;28;20059;-78
2024/01/26 00:15:30;;;;;;;14.73;3.95;;;;;;;-141.50;100.00;63355.56;4949113;28;20040;-80
2024/01/26 00:17:57;;;;;;;13.02;3.20;;;;;;;-141.50;100.00;63355.56;4950604;28;20094;-79
2024/01/26 00:20:24;;;;;;;12.23;3.55;;;;;;;-141.50;100.00;63355.56;4948360;28;20055;-79
2024/01/26 00:22:53;;;;;;;12.63;3.35;;;;;;;-141.50;100.00;63355.56;4962600;28;20075;-78
2024/01/26 00:25:20;;;;;;;10.32;3.45;;;;;;;-141.50;100.00;63355.56;4948694;28;20047;-79
2024/01/26 00:27:47;;;;;;;11.07;3.70;;;;;;;-141.50;100.00;63355.56;4947481;28;20052;-80
2024/01/26 00:30:14;;;;;;;11.75;3.53;;;;;;;-141.50;100.00;63355.56;4949372;28;20482;-79
2024/01/26 00:32:42;;;;;;;16.10;4.25;;;;;;;-141.50;100.00;63355.56;4947418;28;20458;-78
2024/01/26 00:35:08;;;;;;;17.88;3.80;;;;;;;-141.50;100.00;63355.56;4949814;28;20082;-78
2024/01/26 00:37:35;;;;;;;15.98;3.65;;;;;;;-141.50;100.00;63355.56;4948040;28;20050;-78
2024/01/26 00:40:03;;;;;;;18.00;3.97;;;;;;;-141.50;100.00;63355.56;4948735;28;20083;-79
2024/01/26 00:42:29;;;;;;;15.68;4.00;;;;;;;-141.50;100.00;63355.56;4948769;28;20054;-79
2024/01/26 00:44:56;;;;;;;15.05;3.13;;;;;;;-141.50;100.00;63355.56;4952592;28;20506;-79
2024/01/26 00:47:23;;;;;;;15.25;3.72;;;;;;;-141.50;100.00;63355.56;4952021;28;20135;-78
2024/01/26 00:49:50;;;;;;;17.58;4.05;;;;;;;-141.50;100.00;63355.56;4959488;28;20055;-79
2024/01/26 00:52:19;;;;;;;12.85;3.33;;;;;;;-141.50;100.00;63355.56;4953733;28;20138;-78
2024/01/26 00:54:45;;;;;;;9.95;3.83;;;;;;;-141.50;100.00;63355.56;4951847;28;20556;-80
2024/01/26 00:57:12;;;;;;;13.77;3.60;;;;;;;-141.50;100.00;63355.56;4950480;28;20085;-78
2024/01/26 00:59:39;;;;;;;14.68;4.35;;;;;;;-141.50;100.00;63355.56;4950663;28;20399;-78
2024/01/26 01:02:05;;;;;;;18.55;4.72;;;;;;;-141.50;100.00;63355.56;4977335;28;20054;-79
2024/01/26 01:04:33;;;;;;;28.88;4.45;;;;;;;-141.50;100.00;63355.56;4961486;28;20043;-78
2024/01/26 01:06:59;;;;;;;13.43;3.78;;;;;;;-141.50;100.00;63355.56;4997579;28;20067;-78
2024/01/26 01:09:26;;;;;;;18.08;4.50;;;;;;;-141.50;100.00;63355.56;5029325;28;20049;-78
2024/01/26 01:11:53;;;;;;;19.30;4.13;;;;;;;-141.50;100.00;63355.56;4950890;28;20138;-79
2024/01/26 01:14:19;;;;;;;15.45;3.97;;;;;;;-141.50;100.00;63355.56;4949727;28;20051;-78
2024/01/26 01:16:46;;;;;;;12.80;3.88;;;;;;;-141.50;100.00;63355.56;4959839;28;20563;-78
2024/01/26 01:19:13;;;;;;;14.38;3.80;;;;;;;-141.50;100.00;63355.56;4960711;28;20055;-78
2024/01/26 01:21:40;;;;;;;15.57;3.35;;;;;;;-141.50;100.00;63355.56;4977464;28;20130;-79
2024/01/26 01:24:07;;;;;;;16.55;3.72;;;;;;;-141.50;100.00;63355.56;5018811;28;20055;-79
2024/01/26 01:26:34;;;;;;;14.10;3.25;;;;;;;-141.50;100.00;63355.56;4962572;28;20134;-79
2024/01/26 01:29:00;;;;;;;13.63;3.53;;;;;;;-141.50;100.00;63355.56;4970455;28;20142;-78
2024/01/26 01:31:27;;;;;;;9.02;3.05;;;;;;;-141.50;100.00;63355.56;4956173;28;20058;-78
2024/01/26 01:33:54;;;;;;;19.40;3.63;;;;;;;-141.50;100.00;63355.56;4993222;28;20077;-78
2024/01/26 01:36:21;;;;;;;13.35;3.60;;;;;;;-141.50;100.00;63355.56;4953260;28;20059;-80
2024/01/26 01:38:47;;;;;;;18.05;4.82;;;;;;;-141.50;100.00;63355.56;4950002;28;20288;-79
2024/01/26 01:41:14;;;;;;;17.65;4.15;;;;;;;-141.50;100.00;63355.56;4956926;28;20051;-79
2024/01/26 01:43:41;;;;;;;17.88;3.97;;;;;;;-141.50;100.00;63355.56;4971957;28;20054;-79
2024/01/26 01:46:09;;;;;;;15.77;3.65;;;;;;;-141.50;100.00;63355.56;4985846;28;20118;-80
2024/01/26 01:48:35;;;;;;;12.15;2.85;;;;;;;-141.50;100.00;63355.56;4959990;28;20104;-79
2024/01/26 01:51:04;;;;;;;14.98;3.50;;;;;;;-141.50;100.00;63355.56;4968763;28;20054;-80
2024/01/26 01:53:31;;;;;;;15.25;3.92;;;;;;;-141.50;100.00;63355.56;4957560;28;20134;-79
2024/01/26 01:55:59;;;;;;;17.50;3.97;;;;;;;-141.50;100.00;63355.56;4956258;28;20055;-78
2024/01/26 01:58:28;;;;;;;26.52;4.85;;;;;;;-141.50;100.00;63355.56;4966338;28;20058;-78
2024/01/26 02:00:55;;;;;;;12.15;4.05;;;;;;;-141.50;100.00;63355.56;4961065;28;20055;-78
2024/01/26 02:03:21;;;;;;;14.73;3.70;;;;;;;-141.50;100.00;63355.56;4990352;28;20505;-78
2024/01/26 02:05:48;;;;;;;13.45;3.83;;;;;;;-141.50;100.00;63355.56;4979876;28;20536;-80
2024/01/26 02:08:15;;;;;;;15.27;3.70;;;;;;;-141.50;100.00;63355.56;4949739;28;20522;-79
2024/01/26 02:10:42;;;;;;;18.58;4.07;;;;;;;-141.50;100.00;63355.56;4951353;28;20205;-79
2024/01/26 02:13:08;;;;;;;16.70;3.78;;;;;;;-141.50;100.00;63355.56;4948948;28;20101;-79
2024/01/26 02:15:35;;;;;;;19.48;5.22;;;;;;;-141.50;100.00;63355.56;4952692;28;20085;-79
2024/01/26 02:18:02;;;;;;;25.35;5.72;;;;;;;-141.50;100.00;63355.56;4966617;28;20516;-79
2024/01/26 02:20:29;;;;;;;20.17;4.95;;;;;;;-141.50;100.00;63355.56;4986015;28;20101;-79
2024/01/26 02:23:23;;;;;;;20.75;4.78;;;;;;;-141.50;100.00;63355.56;4953139;28;20313;-80
2024/01/26 02:25:50;;;;;;;21.35;4.40;;;;;;;-141.50;100.00;63355.56;4965625;28;20406;-79
2024/01/26 02:28:17;;;;;;;13.77;3.92;;;;;;;-141.50;100.00;63355.56;4982658;28;20557;-79
2024/01/26 02:30:44;;;;;;;16.33;3.63;;;;;;;-141.50;100.00;63355.56;4977516;28;20577;-79
2024/01/26 02:33:11;;;;;;;15.35;3.92;;;;;;;-141.50;100.00;63355.56;4966939;28;20055;-79
2024/01/26 02:35:38;;;;;;;16.30;3.13;;;;;;;-141.50;100.00;63355.56;4958101;28;20051;-79
2024/01/26 02:38:05;;;;;;;15.13;3.08;;;;;;;-141.50;100.00;63355.56;4955818;28;20063;-78
2024/01/26 02:40:32;;;;;;;23.63;3.33;;;;;;;-141.50;100.00;63355.56;4955894;28;20047;-78
2024/01/26 02:42:59;;;;;;;19.02;2.95;;;;;;;-141.50;100.00;63355.56;5008830;28;20057;-79
2024/01/26 02:45:26;;;;;;;13.98;2.63;;;;;;;-141.50;100.00;63355.56;4951818;28;20055;-79
2024/01/26 02:47:53;;;;;;;23.83;3.53;;;;;;;-141.50;100.00;63355.56;4962589;28;20074;-80
2024/01/26 02:50:20;;;;;;;17.15;3.95;;;;;;;-141.50;100.00;63355.56;4960784;28;20051;-79
2024/01/26 02:52:47;;;;;;;19.35;3.03;;;;;;;-141.50;100.00;63355.56;4966028;28;20043;-79
2024/01/26 02:55:14;;;;;;;17.00;3.42;;;;;;;-141.50;100.00;63355.56;4965036;28;20059;-78
2024/01/26 02:57:40;;;;;;;15.77;3.10;;;;;;;-141.50;100.00;63355.56;4963905;28;20456;-80
2024/01/26 03:00:08;;;;;;;27.58;3.67;;;;;;;-141.50;100.00;63355.56;4963807;28;20078;-79
2024/01/26 03:02:35;;;;;;;24.92;3.10;;;;;;;-141.50;100.00;63355.56;4969751;28;20043;-80
2024/01/26 03:05:01;;;;;;;17.35;3.53;;;;;;;-141.50;100.00;63355.56;4963062;28;20081;-79
2024/01/26 03:07:28;;;;;;;12.75;3.00;;;;;;;-141.50;100.00;63355.56;4988327;28;20047;-79
2024/01/26 03:09:55;;;;;;;27.77;3.47;;;;;;;-141.50;100.00;63355.56;4958509;28;20472;-79
2024/01/26 03:12:21;;;;;;;16.33;3.70;;;;;;;-141.50;100.00;63355.56;4950280;28;20048;-79
2024/01/26 03:14:50;;;;;;;13.45;2.90;;;;;;;-141.50;100.00;63355.56;4949219;28;20537;-80
2024/01/26 03:17:17;;;;;;;14.75;3.20;;;;;;;-141.50;100.00;63355.56;4950693;28;20103;-79
2024/01/26 03:19:44;;;;;;;17.90;3.08;;;;;;;-141.50;100.00;63355.56;4949674;28;20138;-80
2024/01/26 03:22:12;;;;;;;25.65;3.90;;;;;;;-141.50;100.00;63355.56;4957566;28;20063;-78
2024/01/26 03:24:38;;;;;;;15.77;2.85;;;;;;;-141.50;100.00;63355.56;4948195;28;20460;-78
2024/01/26 03:27:05;;;;;;;20.25;3.08;;;;;;;-141.50;100.00;63355.56;4971711;28;20057;-79
2024/01/26 03:29:32;;;;;;;23.30;3.47;;;;;;;-141.50;100.00;63355.56;4982031;28;20184;-79
2024/01/26 03:31:58;;;;;;;13.63;2.63;;;;;;;-141.50;100.00;63355.56;4953476;28;20066;-79
2024/01/26 03:34:25;;;;;;;14.93;2.90;;;;;;;-141.50;100.00;63355.56;4959755;28;20067;-79
2024/01/26 03:36:52;;;;;;;27.95;4.10;;;;;;;-141.50;100.00;63355.56;4981240;28;20149;-79
2024/01/26 03:39:19;;;;;;;17.60;2.40;;;;;;;-141.50;100.00;63355.56;5028091;28;20124;-79
2024/01/26 03:41:46;;;;;;;14.02;2.35;;;;;;;-141.50;100.00;63355.56;4960519;28;20394;-78
2024/01/26 03:44:12;;;;;;;12.35;2.70;;;;;;;-141.50;100.00;63355.56;4952082;28;20069;-78
2024/01/26 03:46:43;;;;;;;16.13;2.88;;;;;;;-141.50;100.00;63355.56;4958656;28;20501;-78
2024/01/26 03:49:10;;;;;;;14.93;2.58;;;;;;;-141.50;100.00;63355.56;5016431;28;20106;-79
2024/01/26 03:51:36;;;;;;;22.95;2.75;;;;;;;-141.50;100.00;63355.56;4957678;28;20045;-79
2024/01/26 03:54:03;;;;;;;19.17;2.97;;;;;;;-141.50;100.00;63355.56;5001960;28;20053;-80
2024/01/26 03:56:30;;;;;;;13.60;2.60;;;;;;;-141.50;100.00;63355.56;4981089;28;20063;-80
2024/01/26 03:58:57;;;;;;;13.95;2.97;;;;;;;-141.50;100.00;63355.56;4955437;28;20445;-80
2024/01/26 04:01:23;;;;;;;18.45;3.05;;;;;;;-141.50;100.00;63355.56;4950415;28;20047;-79
2024/01/26 04:03:50;;;;;;;19.92;2.80;;;;;;;-141.50;100.00;63355.56;4949593;28;20039;-79
2024/01/26 04:06:17;;;;;;;14.38;2.58;;;;;;;-141.50;100.00;63355.56;4949537;28;20484;-80
2024/01/26 04:08:44;;;;;;;21.65;2.50;;;;;;;-141.50;100.00;63355.56;4947593;28;20055;-80
2024/01/26 04:11:11;;;;;;;17.88;2.42;;;;;;;-141.50;100.00;63355.56;4942658;28;20452;-80
2024/01/26 04:13:37;;;;;;;13.27;2.75;;;;;;;-141.50;100.00;63355.56;4982778;28;20041;-79
2024/01/26 04:16:06;;;;;;;13.45;2.75;;;;;;;-141.50;100.00;63355.56;4948339;28;20406;-78
2024/01/26 04:18:33;;;;;;;14.85;2.33;;;;;;;-141.50;100.00;63355.56;4947514;28;20062;-80
2024/01/26 04:21:00;;;;;;;9.18;2.50;;;;;;;-141.50;100.00;63355.56;4969794;28;20058;-79
2024/01/26 04:23:26;;;;;;;13.10;3.38;;;;;;;-141.50;100.00;63355.56;4955452;28;20417;-78
2024/01/26 04:25:53;;;;;;;12.93;2.58;;;;;;;-141.50;100.00;63355.56;4987602;28;20067;-78
2024/01/26 04:28:21;;;;;;;14.30;2.75;;;;;;;-141.50;100.00;63355.56;4940172;28;20055;-78
2024/01/26 04:30:47;;;;;;;11.30;2.60;;;;;;;-141.50;100.00;63355.56;4962156;28;20137;-79
2024/01/26 04:33:15;;;;;;;21.55;3.50;;;;;;;-141.50;100.00;63355.56;4991251;28;20070;-78
2024/01/26 04:35:41;;;;;;;15.85;3.08;;;;;;;-141.50;100.00;63355.56;5007709;28;20111;-78
2024/01/26 04:38:08;;;;;;;15.23;3.25;;;;;;;-141.50;100.00;63355.56;4954105;28;20085;-78
2024/01/26 04:40:38;;;;;;;20.65;2.40;;;;;;;-141.50;100.00;63355.56;4969718;28;20051;-79
2024/01/26 04:43:05;;;;;;;15.85;3.13;;;;;;;-141.50;100.00;63355.56;4978455;28;20059;-78
2024/01/26 04:45:32;;;;;;;16.02;3.30;;;;;;;-141.50;100.00;63355.56;4959129;28;20093;-78
2024/01/26 04:47:58;;;;;;;14.95;2.72;;;;;;;-141.50;100.00;63355.56;4964229;28;20111;-79
2024/01/26 04:50:25;;;;;;;13.45;2.63;;;;;;;-141.50;100.00;63355.56;4960532;28;20062;-78
2024/01/26 04:52:52;;;;;;;12.23;2.75;;;;;;;-141.50;100.00;63355.56;4968623;28;20050;-79
2024/01/26 04:55:22;;;;;;;15.57;2.83;;;;;;;-141.50;100.00;63355.56;4976189;28;20464;-79
2024/01/26 04:57:49;;;;;;;11.30;2.67;;;;;;;-141.50;100.00;63355.56;4952824;28;20074;-79
2024/01/26 05:00:18;;;;;;;13.45;3.13;;;;;;;-141.50;100.00;63355.56;4958557;28;20051;-78
2024/01/26 05:02:45;;;;;;;10.90;3.10;;;;;;;-141.50;100.00;63355.56;4952509;28;20529;-79
2024/01/26 05:05:12;;;;;;;16.45;2.88;;;;;;;-141.50;100.00;63355.56;4956353;28;20085;-79
2024/01/26 05:07:39;;;;;;;10.77;2.03;;;;;;;-141.50;100.00;63355.56;4970882;28;20128;-78
2024/01/26 05:10:07;;;;;;;11.32;2.50;;;;;;;-141.50;100.00;63355.56;5008414;28;20068;-79
2024/01/26 05:12:34;;;;;;;11.05;2.33;;;;;;;-141.50;100.00;63355.56;4971292;28;20059;-79
2024/01/26 05:15:00;;;;;;;11.18;2.83;;;;;;;-141.50;100.00;63355.56;4955580;28;20124;-79
2024/01/26 05:17:32;;;;;;;7.03;2.28;;;;;;;-141.50;100.00;63355.56;4958181;28;20046;-79
2024/01/26 05:19:59;;;;;;;7.53;2.50;;;;;;;-141.50;100.00;63355.56;5012880;28;20048;-79
2024/01/26 05:22:26;;;;;;;11.60;2.65;;;;;;;-141.50;100.00;63355.56;4974405;28;20055;-81
2024/01/26 05:24:52;;;;;;;8.82;3.00;;;;;;;-141.50;100.00;63355.56;4998177;28;20422;-81
2024/01/26 05:27:19;;;;;;;10.82;3.03;;;;;;;-141.50;100.00;63355.56;4943876;28;20160;-83
2024/01/26 05:29:46;;;;;;;10.15;3.17;;;;;;;-141.50;100.00;63355.56;4991209;28;20054;-82
2024/01/26 05:32:14;;;;;;;7.22;2.90;;;;;;;-141.50;100.00;63355.56;5062104;28;20458;-83
2024/01/26 05:34:40;;;;;;;11.50;3.38;;;;;;;-141.50;100.00;63355.56;4993130;28;20050;-85
2024/01/26 05:37:07;;;;;;;14.73;3.05;;;;;;;-141.50;100.00;63355.56;4980329;28;20047;-80
2024/01/26 05:39:34;;;;;;;9.15;2.95;;;;;;;-141.50;100.00;63355.56;4967007;28;20548;-77
2024/01/26 05:42:01;;;;;;;11.00;3.17;;;;;;;-141.50;100.00;63355.56;4965048;28;20694;-81
2024/01/26 05:44:27;;;;;;;13.40;3.33;;;;;;;-141.50;100.00;63355.56;4986838;28;20120;-81
2024/01/26 05:46:54;;;;;;;12.40;3.65;;;;;;;-141.50;100.00;63355.56;4941341;28;20082;-80
2024/01/26 05:49:25;;;;;;;11.38;3.50;;;;;;;-141.50;100.00;63355.56;5002251;28;20049;-80
2024/01/26 05:51:52;;;;;;;9.48;3.22;;;;;;;-141.50;100.00;63355.56;5004791;28;20146;-81
2024/01/26 05:54:19;;;;;;;12.13;3.15;;;;;;;-141.50;100.00;63355.56;4999756;28;20038;-80
2024/01/26 05:56:46;;;;;;;10.52;3.30;;;;;;;-141.50;100.00;63355.56;4960883;28;20066;-80
2024/01/26 05:59:13;;;;;;;9.25;2.70;;;;;;;-141.50;100.00;63355.56;4997370;28;20052;-79
2024/01/26 06:01:40;;;;;;;7.80;2.90;;;;;;;-141.50;100.00;63355.56;4972752;28;20054;-81
2024/01/26 06:04:06;;;;;;;9.27;3.15;;;;;;;-141.50;100.00;63355.56;5023125;28;20059;-77
2024/01/26 06:06:33;;;;;;;8.27;3.30;;;;;;;-141.50;100.00;63355.56;4987997;28;20048;-80
2024/01/26 06:09:00;;;;;;;6.95;3.20;;;;;;;-141.50;100.00;63355.56;4972779;28;20677;-78
2024/01/26 06:11:27;;;;;;;8.80;3.45;;;;;;;-141.50;100.00;63355.56;4947329;28;20093;-78
2024/01/26 06:13:54;;;;;;;9.02;2.92;;;;;;;-141.50;100.00;63355.56;5038696;28;20041;-79
2024/01/26 06:16:20;;;;;;;5.43;3.10;;;;;;;-141.50;100.00;63355.56;4972563;28;20112;-77
2024/01/26 06:18:47;;;;;;;7.55;3.10;;;;;;;-141.50;100.00;63355.56;4979920;28;20047;-80
2024/01/26 06:21:14;;;;;;;9.38;3.10;;;;;;;-141.50;100.00;63355.56;5010165;28;20053;-78
2024/01/26 06:23:41;;;;;;;6.50;2.67;;;;;;;-141.50;100.00;63355.56;4958701;28;20053;-80
2024/01/26 06:26:08;;;;;;;10.00;2.65;;;;;;;-141.50;100.00;63355.56;5013635;28;20049;-80
2024/01/26 06:28:35;;;;;;;7.05;2.58;;;;;;;-141.50;100.00;63355.56;4958361;28;20070;-80
2024/01/26 06:31:01;;;;;;;7.90;2.83;;;;;;;-141.50;100.00;63355.56;5009715;28;20065;-80
2024/01/26 06:33:28;;;;;;;6.82;2.38;;;;;;;-141.50;100.00;63355.56;5028342;28;20144;-82
2024/01/26 06:35:58;;;;;;;7.43;2.70;;;;;;;-141.50;100.00;63355.56;4979540;28;20119;-79
2024/01/26 06:38:25;;;;;;;6.55;2.40;;;;;;;-141.50;100.00;63355.56;5019219;28;20063;-80
2024/01/26 06:40:51;;;;;;;5.38;2.53;;;;;;;-141.50;100.00;63355.56;5003448;28;20042;-81
2024/01/26 06:43:19;;;;;;;6.57;2.47;;;;;;;-141.50;100.00;63355.56;5014680;28;20142;-79
2024/01/26 06:45:46;;;;;;;2.90;1.75;;;;;;;-141.50;100.00;63355.56;5021523;28;20118;-81
2024/01/26 06:48:13;;;;;;;6.07;2.15;;;;;;;-141.50;100.00;63355.56;4973807;28;20054;-81
2024/01/26 06:50:40;;;;;;;5.55;1.88;;;;;;;-141.50;100.00;63355.56;4969930;28;20053;-80
2024/01/26 06:53:09;;;;;;;3.67;2.00;;;;;;;-141.50;100.00;63355.56;5001443;28;20142;-81
2024/01/26 06:55:35;;;;;;;5.20;1.90;;;;;;;-141.50;100.00;63355.56;4959499;28;20448;-80
2024/01/26 06:58:02;;;;;;;4.43;2.15;;;;;;;-141.50;100.00;63355.56;4949457;28;20079;-80
2024/01/26 07:00:31;;;;;;;7.20;2.03;;;;;;;-141.50;100.00;63355.56;5023047;28;20035;-81
2024/01/26 07:02:58;;;;;;;6.18;1.83;;;;;;;-141.50;100.00;63355.56;4996628;28;20041;-80
2024/01/26 07:05:28;;;;;;;4.97;2.00;;;;;;;-141.50;100.00;63355.56;4982747;28;20054;-79
2024/01/26 07:07:56;;;;;;;3.92;2.05;;;;;;;-141.50;100.00;63355.56;5007817;28;20124;-79
2024/01/26 07:10:23;;;;;;;3.67;1.80;;;;;;;-141.50;100.00;63355.56;4978265;28;20096;-81
2024/01/26 07:12:50;;;;;;;4.47;1.83;;;;;;;-141.50;100.00;63355.56;4959303;28;20055;-79
2024/01/26 07:15:17;;;;;;;3.85;1.80;;;;;;;-141.50;100.00;63355.56;5005133;28;20049;-80
2024/01/26 07:17:43;;;;;;;4.50;2.00;;;;;;;-141.50;100.00;63355.56;4971542;28;20109;-81
2024/01/26 07:20:10;;;;;;;3.03;1.52;;;;;;;-141.50;100.00;63355.56;4990622;28;20501;-82
2024/01/26 07:22:37;;;;;;;6.28;1.70;;;;;;;-141.50;100.00;63355.56;4996635;28;20051;-82
2024/01/26 07:25:09;;;;;;;4.45;1.98;;;;;;;-141.50;100.00;63355.56;4966569;28;20141;-84
2024/01/26 07:27:36;;;;;;;5.03;1.70;;;;;;;-141.50;100.00;63355.56;4983700;28;20067;-79
2024/01/26 07:30:08;;;;;;;4.13;1.60;;;;;;;-141.50;100.00;63355.56;4997578;28;20053;-84
2024/01/26 07:32:35;;;;;;;6.35;2.15;;;;;;;-141.50;100.00;63355.56;5013641;28;20045;-80
2024/01/26 07:35:03;;;;;;;2.70;1.48;;;;;;;-141.50;100.00;63355.56;5006389;28;20086;-81
2024/01/26 07:37:29;;;;;;;3.42;1.40;;;;;;;-141.50;100.00;63355.56;4952506;28;20047;-82
2024/01/26 07:39:56;;;;;;;2.17;1.38;;;;;;;-141.50;100.00;63355.56;5004537;28;20048;-81
2024/01/26 07:42:23;;;;;;;2.70;1.33;;;;;;;-141.50;100.00;63355.56;4958271;28;20056;-81
2024/01/26 07:44:50;;;;;;;3.38;1.70;;;;;;;-141.50;100.00;63355.56;4955902;28;20051;-80
2024/01/26 07:47:17;;;;;;;2.75;1.55;;;;;;;-141.50;100.00;63355.56;5014303;28;20049;-79
2024/01/26 07:49:44;;;;;;;3.58;1.90;;;;;;;-141.50;100.00;63355.56;4974414;28;20053;-81
2024/01/26 07:52:11;;;;;;;3.03;1.63;;;;;;;-141.50;100.00;63355.56;4975963;28;20074;-81
2024/01/26 07:54:38;;;;;;;4.38;1.92;;;;;;;-141.50;100.00;63355.56;4950280;28;20101;-82
2024/01/26 07:57:04;;;;;;;2.80;1.58;;;;;;;-141.50;100.00;63355.56;4946220;28;20055;-80
2024/01/26 07:59:31;;;;;;;3.33;1.67;;;;;;;-141.50;100.00;63355.56;4961783;28;20141;-79
2024/01/26 08:01:58;;;;;;;3.47;1.58;;;;;;;-141.50;100.00;63355.56;4946102;28;20063;-81
2024/01/26 08:04:25;;;;;;;2.42;1.80;;;;;;;-141.50;100.00;63355.56;4946122;28;20408;-78
2024/01/26 08:06:52;;;;;;;3.60;1.58;;;;;;;-141.50;100.00;63355.56;4945745;28;20051;-79
2024/01/26 08:09:20;;;;;;;3.17;1.60;;;;;;;-141.50;100.00;63355.56;4946274;28;20618;-79
2024/01/26 08:11:46;;;;;;;3.97;1.75;;;;;;;-141.50;100.00;63355.56;4950281;28;20047;-79
2024/01/26 08:14:13;;;;;;;4.35;1.52;;;;;;;-141.50;100.00;63355.56;4948759;28;20055;-80
2024/01/26 08:16:40;;;;;;;3.50;1.55;;;;;;;-141.50;100.00;63355.56;4946898;28;20134;-81
2024/01/26 08:19:07;;;;;;;4.22;1.52;;;;;;;-141.50;100.00;63355.56;4944877;28;20066;-78
2024/01/26 08:21:34;;;;;;;2.47;1.30;;;;;;;-141.50;100.00;63355.56;4946713;28;20046;-80
2024/01/26 08:24:01;;;;;;;2.70;1.40;;;;;;;-141.50;100.00;63355.56;4944642;28;20051;-78
2024/01/26 08:26:28;;;;;;;2.38;1.38;;;;;;;-141.50;100.00;63355.56;4956060;28;20039;-78
2024/01/26 08:28:55;;;;;;;2.67;1.60;;;;;;;-141.50;100.00;63355.56;4959338;28;20047;-80
2024/01/26 08:31:22;;;;;;;1.70;1.15;;;;;;;-141.50;100.00;63355.56;4967985;28;20624;-78
2024/01/26 08:33:49;;;;;;;2.22;1.30;;;;;;;-141.50;100.00;63355.56;4990153;28;20049;-81
2024/01/26 08:36:16;;;;;;;2.03;1.13;;;;;;;-141.50;100.00;63355.56;4965623;28;20594;-80
2024/01/26 08:38:43;;;;;;;1.13;0.90;;;;;;;-141.50;100.00;63355.56;4995770;28;20047;-79
2024/01/26 08:41:10;;;;;;;2.13;1.15;;;;;;;-141.50;100.00;63355.56;4959696;28;20051;-80
2024/01/26 08:43:37;;;;;;;4.05;1.10;;;;;;;-141.50;100.00;63355.56;4956923;28;20072;-80
2024/01/26 08:46:04;;;;;;;1.60;1.10;;;;;;;-141.50;100.00;63355.56;4963774;28;20458;-79
2024/01/26 08:48:30;;;;;;;2.55;1.00;;;;;;;-141.50;100.00;63355.56;5022987;28;20051;-81
2024/01/26 08:50:57;;;;;;;3.08;1.10;;;;;;;-141.50;100.00;63355.56;4982158;28;20045;-80
2024/01/26 08:53:24;;;;;;;2.33;1.38;;;;;;;-141.50;100.00;63355.56;4997537;28;20699;-79
2024/01/26 08:55:50;;;;;;;1.92;0.93;;;;;;;-141.50;100.00;63355.56;5003261;28;20093;-80
2024/01/26 08:58:17;;;;;;;2.42;0.85;;;;;;;-141.50;100.00;63355.56;4986126;28;20059;-79
2024/01/26 09:00:45;;;;;;;1.50;0.85;;;;;;;-141.50;100.00;63355.56;4989876;28;20526;-80
2024/01/26 09:03:12;;;;;;;3.10;1.10;;;;;;;-141.50;100.00;63355.56;5034007;28;20063;-79
2024/01/26 09:05:39;;;;;;;2.63;0.88;;;;;;;-141.50;100.00;63355.56;4976374;28;20047;-80
2024/01/26 09:08:05;;;;;;;2.85;0.90;;;;;;;-141.50;100.00;63355.56;4970604;28;20075;-79
2024/01/26 09:10:32;;;;;;;2.63;1.02;;;;;;;-141.50;100.00;63355.56;4968305;28;20045;-80
2024/01/26 09:12:59;;;;;;;3.40;1.08;;;;;;;-141.50;100.00;63355.56;4974423;28;20549;-81
2024/01/26 09:15:26;;;;;;;1.92;0.80;;;;;;;-141.50;100.00;63355.56;4988462;28;20113;-81
2024/01/26 09:17:52;;;;;;;2.03;0.95;;;;;;;-141.50;100.00;63355.56;4976653;28;20058;-80
2024/01/26 09:20:19;;;;;;;2.15;0.98;;;;;;;-141.50;100.00;63355.56;4968058;28;20133;-79
2024/01/26 09:22:46;;;;;;;1.85;0.82;;;;;;;-141.50;100.00;63355.56;4989614;28;20054;-80
2024/01/26 09:25:12;;;;;;;1.52;0.90;;;;;;;-141.50;100.00;63355.56;4994630;28;20093;-79
2024/01/26 09:27:39;;;;;;;1.20;0.80;;;;;;;-141.50;100.00;63355.56;4958846;28;20050;-80
2024/01/26 09:30:06;;;;;;;1.35;0.85;;;;;;;-141.50;100.00;63355.56;4971076;28;20057;-80
2024/01/26 09:32:36;;;;;;;2.00;0.70;;;;;;;-141.50;100.00;63355.56;4966410;28;20055;-81
2024/01/26 09:35:04;;;;;;;2.50;0.88;;;;;;;-141.50;100.00;63355.56;4960212;28;20051;-80
2024/01/26 09:37:31;;;;;;;1.55;0.80;;;;;;;-141.50;100.00;63355.56;4968530;28;20518;-80
2024/01/26 09:39:57;;;;;;;2.88;1.10;;;;;;;-141.50;100.00;63355.56;4982768;28;20652;-80
2024/01/26 09:42:24;;;;;;;0.95;0.60;;;;;;;-141.50;100.00;63355.56;4960190;28;20081;-80
2024/01/26 09:44:51;;;;;;;1.73;0.82;;;;;;;-141.50;100.00;63355.56;4980362;28;20154;-80
2024/01/26 09:47:20;;;;;;;0.90;0.60;;;;;;;-141.50;100.00;63355.56;4974613;28;20063;-79
2024/01/26 09:49:55;;;;;;;1.00;0.70;;;;;;;-141.50;100.00;63355.56;4959119;28;20074;-81
2024/01/26 09:52:23;;;;;;;;;;;;;;;-141.50;100.00;63355.56;5043216;28;20055;-80
2024/01/26 09:54:51;;;;;;;0.80;0.63;;;;;;;-141.50;100.00;63355.56;4972088;28;20380;-80
2024/01/26 09:57:20;;;;;;;1.23;0.75;;;;;;;-141.50;100.00;63355.56;4970486;28;20642;-81
2024/01/26 09:59:50;;;;;;;1.10;0.50;;;;;;;-141.50;100.00;63355.56;4993604;28;20054;-81
2024/01/26 10:02:18;;;;;;;1.75;0.80;;;;;;;-141.50;100.00;63355.56;4956338;28;20103;-81
2024/01/26 10:04:44;;;;;;;0.98;0.55;;;;;;;-141.50;100.00;63355.56;4972820;28;20142;-81
2024/01/26 10:07:11;;;;;;;0.98;0.60;;;;;;;-141.50;100.00;63355.56;4963202;28;20452;-80
2024/01/26 10:09:39;;;;;;;0.90;0.60;;;;;;;-141.50;100.00;63355.56;4974462;28;20111;-81
2024/01/26 10:12:08;;;;;;;1.42;0.60;;;;;;;-141.50;100.00;63355.56;4961802;28;20051;-80
2024/01/26 10:14:34;;;;;;;0.70;0.50;;;;;;;-141.50;100.00;63355.56;4957105;28;20050;-81
2024/01/26 10:17:01;;;;;;;1.20;0.73;;;;;;;-141.50;100.00;63355.56;5043990;28;20122;-81
2024/01/26 10:19:29;;;;;;;0.88;0.60;;;;;;;-141.50;100.00;63355.56;4958357;28;20051;-80
2024/01/26 10:21:57;;;;;;;1.58;0.70;;;;;;;-141.50;100.00;63355.56;4993753;28;20049;-80
2024/01/26 10:24:24;;;;;;;1.58;0.90;;;;;;;-141.50;100.00;63355.56;5008851;28;20067;-80
2024/01/26 10:26:54;;;;;;;1.67;0.90;;;;;;;-141.50;100.00;63355.56;5015096;28;20140;-80
2024/01/26 10:29:24;;;;;;;1.63;0.90;;;;;;;-141.50;100.00;63355.56;4978533;28;20165;-80
2024/01/26 10:31:52;;;;;;;1.63;0.88;;;;;;;-141.50;100.00;63355.56;4961298;28;20047;-80
2024/01/26 10:34:20;;;;;;;1.10;0.73;;;;;;;-141.50;100.00;63355.56;4958354;28;20047;-80
2024/01/26 10:36:49;;;;;;;0.75;0.70;;;;;;;-141.50;100.00;63355.56;4961216;28;20058;-81
2024/01/26 10:39:37;;;;;;;1.17;0.80;;;;;;;-141.50;100.00;63355.56;4965591;28;20047;-80
2024/01/26 10:42:05;;;;;;;1.50;0.90;;;;;;;-141.50;100.00;63355.56;4948921;28;20531;-81
2024/01/26 10:44:37;;;;;;;1.08;0.70;;;;;;;-141.50;100.00;63355.56;4970476;28;20055;-79
2024/01/26 10:47:07;;;;;;;1.33;0.90;;;;;;;-141.50;100.00;63355.56;4958782;28;20089;-80
2024/01/26 10:49:36;;;;;;;1.20;0.80;;;;;;;-141.50;100.00;63355.56;4960431;28;20428;-81
2024/01/26 10:52:05;;;;;;;1.77;1.05;;;;;;;-141.50;100.00;63355.56;4964938;28;20058;-82
2024/01/26 10:54:32;;;;;;;1.30;0.80;;;;;;;-141.50;100.00;63355.56;4957422;28;20047;-82
2024/01/26 10:56:59;;;;;;;1.55;0.80;;;;;;;-141.50;100.00;63355.56;5030681;28;20085;-82
2024/01/26 10:59:27;;;;;;;1.15;0.80;;;;;;;-141.50;100.00;63355.56;4967354;28;20065;-82
2024/01/26 11:01:55;;;;;;;1.20;0.70;;;;;;;-141.50;100.00;63355.56;4961043;28;20047;-79
2024/01/26 11:04:22;;;;;;;0.95;0.60;;;;;;;-141.50;100.00;63355.56;4990676;28;20076;-80